hintergrundbild

 METAR AND TAF INFORMATION
METAR FOR YSCB
ADDS - METARS form results

(1027 UTC 18 August 2019)
Data provider http://aviationweather.gov/metar/data/
 
METAR text: YSCB 181004Z AUTO 34017G27KT 9999 -SHRA SCT060 SCT071 OVC087 16/03 Q1007
Conditions at: YSCB (CANBERRA (CIV/MI, AU) observed 1004 UTC 18 August 2019
Temperature: 16.0°C (61°F)
Dewpoint: 3.0°C (37°F) [RH = 42%]
Pressure (altimeter): 29.73 inches Hg (1007.0 mb)
Winds: from the NNW (340 degrees) at 20 MPH (17 knots; 8.7 m/s)
gusting to 31 MPH (27 knots; 13.9 m/s)
Visibility: 6 or more miles (10+ km)
Ceiling: 8700 feet AGL
Clouds: scattered clouds at 6000 feet AGL
scattered clouds at 7100 feet AGL
overcast cloud deck at 8700 feet AGL
Weather: -SHRA  (light rain showers)

METAR text: YSCB 181000Z AUTO 34016KT 9999 -SHRA SCT060 BKN071 OVC085 16/03 Q1007
Conditions at: YSCB (CANBERRA (CIV/MI, AU) observed 1000 UTC 18 August 2019
Temperature: 16.0°C (61°F)
Dewpoint: 3.0°C (37°F) [RH = 42%]
Pressure (altimeter): 29.73 inches Hg (1007.0 mb)
Winds: from the NNW (340 degrees) at 18 MPH (16 knots; 8.2 m/s)
Visibility: 6 or more miles (10+ km)
Ceiling: 7100 feet AGL
Clouds: scattered clouds at 6000 feet AGL
broken clouds at 7100 feet AGL
overcast cloud deck at 8500 feet AGL
Weather: -SHRA  (light rain showers)

METAR text: YSCB 180950Z AUTO 32027G38KT 9999 -SHRA SCT060 SCT071 OVC087 16/03 Q1007
Conditions at: YSCB (CANBERRA (CIV/MI, AU) observed 0950 UTC 18 August 2019
Temperature: 16.0°C (61°F)
Dewpoint: 3.0°C (37°F) [RH = 42%]
Pressure (altimeter): 29.73 inches Hg (1007.0 mb)
Winds: from the NW (320 degrees) at 31 MPH (27 knots; 13.9 m/s)
gusting to 44 MPH (38 knots; 19.5 m/s)
Visibility: 6 or more miles (10+ km)
Ceiling: 8700 feet AGL
Clouds: scattered clouds at 6000 feet AGL
scattered clouds at 7100 feet AGL
overcast cloud deck at 8700 feet AGL
Weather: -SHRA  (light rain showers)

METAR text: YSCB 180946Z AUTO 32030KT 9999 -SHRA SCT061 BKN079 OVC094 16/03 Q1007
Conditions at: YSCB (CANBERRA (CIV/MI, AU) observed 0946 UTC 18 August 2019
Temperature: 16.0°C (61°F)
Dewpoint: 3.0°C (37°F) [RH = 42%]
Pressure (altimeter): 29.73 inches Hg (1007.0 mb)
Winds: from the NW (320 degrees) at 34 MPH (30 knots; 15.4 m/s)
Visibility: 6 or more miles (10+ km)
Ceiling: 7900 feet AGL
Clouds: scattered clouds at 6100 feet AGL
broken clouds at 7900 feet AGL
overcast cloud deck at 9400 feet AGL
Weather: -SHRA  (light rain showers)

METAR text: YSCB 180944Z AUTO 31017G36KT 9999 -SHRA SCT061 SCT079 OVC094 16/03 Q1008
Conditions at: YSCB (CANBERRA (CIV/MI, AU) observed 0944 UTC 18 August 2019
Temperature: 16.0°C (61°F)
Dewpoint: 3.0°C (37°F) [RH = 42%]
Pressure (altimeter): 29.76 inches Hg (1008.0 mb)
Winds: from the NW (310 degrees) at 20 MPH (17 knots; 8.7 m/s)
gusting to 41 MPH (36 knots; 18.5 m/s)
Visibility: 6 or more miles (10+ km)
Ceiling: 9400 feet AGL
Clouds: scattered clouds at 6100 feet AGL
scattered clouds at 7900 feet AGL
overcast cloud deck at 9400 feet AGL
Weather: -SHRA  (light rain showers)

METAR text: YSCB 180941Z AUTO 31015G26KT 290V350 9999 -SHRA SCT061 SCT078 OVC093 16/01 Q1007
Conditions at: YSCB (CANBERRA (CIV/MI, AU) observed 0941 UTC 18 August 2019
Temperature: 16.0°C (61°F)
Dewpoint: 1.0°C (34°F) [RH = 36%]
Pressure (altimeter): 29.73 inches Hg (1007.0 mb)
Winds: from the NW (310 degrees) at 17 MPH (15 knots; 7.7 m/s)
gusting to 30 MPH (26 knots; 13.4 m/s)
Visibility: 6 or more miles (10+ km)
Ceiling: 9300 feet AGL
Clouds: scattered clouds at 6100 feet AGL
scattered clouds at 7800 feet AGL
overcast cloud deck at 9300 feet AGL
Weather: -SHRA  (light rain showers)

METAR text: YSCB 180930Z AUTO 31010KT 300V360 9999 // SCT063 SCT074 BKN097 15/01 Q1007
Conditions at: YSCB (CANBERRA (CIV/MI, AU) observed 0930 UTC 18 August 2019
Temperature: 15.0°C (59°F)
Dewpoint: 1.0°C (34°F) [RH = 39%]
Pressure (altimeter): 29.73 inches Hg (1007.0 mb)
Winds: from the NW (310 degrees) at 12 MPH (10 knots; 5.1 m/s)
Visibility: 6 or more miles (10+ km)
Ceiling: 9700 feet AGL
Clouds: scattered clouds at 6300 feet AGL
scattered clouds at 7400 feet AGL
broken clouds at 9700 feet AGL
Weather: no significant weather observed at this time

Forecast for: AMD
Text: TAF AMD YSCB 180509Z 1805/1906 32014KT CAVOK
Forecast period: 0500 to 0700 UTC 18 August 2019
Forecast type: FROM: standard forecast or significant change
Winds: from the NW (320 degrees) at 16 MPH (14 knots; 7.2 m/s)
Visibility: 6 or more miles 10+ km)
Ceiling: unknown
Clouds: missing
Weather: NSW  (no significant weather)
Text: FM180700 36012KT CAVOK
Forecast period: 0700 to 1100 UTC 18 August 2019
Forecast type: FROM: standard forecast or significant change
Winds: from the N (360 degrees) at 14 MPH (12 knots; 6.2 m/s)
Visibility: 6 or more miles 10+ km)
Ceiling: unknown
Clouds: missing
Weather: NSW  (no significant weather)
Text: FM181100 28014KT 9999 -SHRA SCT030
Forecast period: 1100 to 1800 UTC 18 August 2019
Forecast type: FROM: standard forecast or significant change
Winds: from the W (280 degrees) at 16 MPH (14 knots; 7.2 m/s)
Visibility: 6 or more miles 10+ km)
Ceiling: at least 12,000 feet AGL
Clouds: scattered clouds at 3000 feet AGL
Weather: -SHRA  (light rain showers)
Text: FM181800 28012KT 9999 NSW BKN020
Forecast period: 1800 to 2300 UTC 18 August 2019
Forecast type: FROM: standard forecast or significant change
Winds: from the W (280 degrees) at 14 MPH (12 knots; 6.2 m/s)
Visibility: 6 or more miles 10+ km)
Ceiling: 2000 feet AGL
Clouds: broken clouds at 2000 feet AGL
Weather: NSW  (no significant weather)
Text: BECMG 1823/1901 27015G25KT CAVOK INTER 1812/1816 5000 SHRA BKN020
Forecast period: 2300 UTC 18 August 2019 to 0600 UTC 19 August 2019
Forecast type: BECOMING: Conditions expected to become as follows by 0100 UTC 19 August 2019
Winds: from the W (270 degrees) at 17 MPH (15 knots; 7.7 m/s)
gusting to 29 MPH (25 knots; 12.9 m/s)
Visibility: 6 or more miles 10+ km)
Ceiling: unknown
Clouds: missing
Weather: NSW  (no significant weather)
Text:
Forecast period: 1200 to 1600 UTC 18 August 2019
Forecast type: TEMPORARY: The following changes expected for less than half the time period
Visibility: 3 miles (5 km)
Ceiling: 2000 feet AGL
Clouds: broken clouds at 2000 feet AGL
Weather: SHRA  (rain showers)

 AIRPORT MAP

 RUNWAY INFORMATION
Runway 12 Runway length 5509 ft Runway width 148 ft
Runway elevation 1849 ft Runway displaced threshold 0 ft Runway heading 130
Runway 30 Runway length 5509 ft Runway width 148 ft
Runway elevation 1886 ft Runway displaced threshold 214 ft Runway heading 310
Runway 17 Runway length 10771 ft Runway width 148 ft
Runway elevation 1874 ft Runway displaced threshold 0 ft Runway heading 180
Runway 35 Runway length 10771 ft Runway width 148 ft
Runway elevation 1870 ft Runway displaced threshold 1968 ft Runway heading 360

 AIRPORT FREQUENCIES
Type APP/DEP EA Name Approach/D Frequency 124.5 MHZ
Type APP/DEP WE Name Approach/D Frequency 125.9 MHZ
Type ATIS Name ATIS Frequency 127.45 MHZ
Type ATIS/VOR Name ATIS AH Frequency 116.7 MHZ
Type GCCD Name GND CLNC D Frequency 121.7 MHZ
Type TWR/CTAF Name TWR (CTAF Frequency 118.7 MHZ

 AIRPORT NEAR NAVIGATION AIDS
Type VOR-DME Name Canberra Frequency 116700 KHZ
Type NDB Name Canberra Frequency 263 KHZ
Type NDB Name Church Creek Frequency 248 KHZ



Impressum